createdAt,value
2018-03-28T00:05:44.000Z,997.378
2018-03-28T00:15:42.000Z,997.298
2018-03-28T00:25:43.000Z,997.131
2018-03-28T00:35:42.000Z,997
2018-03-28T00:45:42.000Z,996.962
2018-03-28T00:55:42.000Z,996.861
2018-03-28T01:05:42.000Z,996.808
2018-03-28T01:15:42.000Z,996.796
2018-03-28T01:25:42.000Z,996.749
2018-03-28T01:35:42.000Z,996.779
2018-03-28T01:45:42.000Z,996.674
2018-03-28T01:55:42.000Z,996.57
2018-03-28T02:05:42.000Z,996.457
2018-03-28T02:15:42.000Z,996.654
2018-03-28T02:25:42.000Z,996.574
2018-03-28T02:35:43.000Z,996.524
2018-03-28T02:45:43.000Z,996.419
2018-03-28T02:55:43.000Z,996.439
2018-03-28T03:05:43.000Z,996.354
2018-03-28T03:15:43.000Z,996.379
2018-03-28T03:25:43.000Z,996.463
2018-03-28T03:35:43.000Z,996.465
2018-03-28T03:45:43.000Z,996.518
2018-03-28T03:55:44.000Z,996.486
2018-03-28T04:05:43.000Z,996.492
2018-03-28T04:15:43.000Z,996.237
2018-03-28T04:25:43.000Z,996.333
2018-03-28T04:35:43.000Z,996.411
2018-03-28T04:45:43.000Z,996.468
2018-03-28T04:55:43.000Z,996.449
2018-03-28T05:05:43.000Z,996.364
2018-03-28T05:15:43.000Z,996.247
2018-03-28T05:25:43.000Z,996.382
2018-03-28T05:35:43.000Z,996.412
2018-03-28T05:45:43.000Z,996.481
2018-03-28T05:55:43.000Z,996.497
2018-03-28T06:05:43.000Z,996.538
2018-03-28T06:15:43.000Z,996.485
2018-03-28T06:25:43.000Z,996.455
2018-03-28T06:35:43.000Z,996.373
2018-03-28T06:45:43.000Z,996.283
2018-03-28T06:55:43.000Z,996.262
2018-03-28T07:05:43.000Z,996.155
2018-03-28T07:15:43.000Z,996.09
2018-03-28T07:25:43.000Z,996.077
2018-03-28T07:35:43.000Z,996.149
2018-03-28T07:45:43.000Z,996.087
2018-03-28T07:55:43.000Z,996.126
2018-03-28T08:05:43.000Z,996.183
2018-03-28T08:15:43.000Z,996.208
2018-03-28T08:25:43.000Z,996.059
2018-03-28T08:35:43.000Z,996.029
2018-03-28T08:45:43.000Z,995.99
2018-03-28T08:55:43.000Z,995.867
2018-03-28T09:05:43.000Z,995.872
2018-03-28T09:15:43.000Z,995.832
2018-03-28T09:25:43.000Z,995.8
2018-03-28T09:35:43.000Z,995.774
2018-03-28T09:45:43.000Z,995.705
2018-03-28T09:55:43.000Z,995.613
2018-03-28T10:05:43.000Z,995.443
2018-03-28T10:15:43.000Z,995.349
2018-03-28T10:25:43.000Z,995.425
2018-03-28T10:35:43.000Z,995.337
2018-03-28T10:45:43.000Z,995.31
2018-03-28T10:55:43.000Z,995.043
2018-03-28T11:05:44.000Z,994.983
2018-03-28T11:15:44.000Z,994.855
2018-03-28T11:25:44.000Z,994.72
2018-03-28T11:35:44.000Z,994.542
2018-03-28T11:45:44.000Z,994.288
2018-03-28T11:55:44.000Z,994.184
2018-03-28T12:05:44.000Z,994.005
2018-03-28T12:15:44.000Z,993.789
2018-03-28T12:25:44.000Z,993.615
2018-03-28T12:35:44.000Z,993.452
2018-03-28T12:45:44.000Z,993.251
2018-03-28T12:55:44.000Z,993.046
2018-03-28T13:05:44.000Z,992.825
2018-03-28T13:15:44.000Z,992.647
2018-03-28T13:25:44.000Z,992.428
2018-03-28T13:35:44.000Z,992.247
2018-03-28T13:45:44.000Z,992.012
2018-03-28T13:55:44.000Z,991.804
2018-03-28T14:05:44.000Z,991.591
2018-03-28T14:15:44.000Z,991.373
2018-03-28T14:25:44.000Z,991.248
2018-03-28T14:35:44.000Z,991.193
2018-03-28T14:45:44.000Z,990.982
2018-03-28T14:55:44.000Z,990.75
2018-03-28T15:05:44.000Z,990.537
2018-03-28T15:15:44.000Z,990.318
2018-03-28T15:25:44.000Z,990.108
2018-03-28T15:35:44.000Z,989.948
2018-03-28T15:45:44.000Z,989.696
2018-03-28T15:55:44.000Z,989.611
2018-03-28T16:05:44.000Z,989.284
2018-03-28T16:15:44.000Z,988.787
2018-03-28T16:25:44.000Z,988.739
2018-03-28T16:35:44.000Z,988.559
2018-03-28T16:45:44.000Z,988.332
2018-03-28T16:55:45.000Z,988.145
2018-03-28T17:05:44.000Z,988.11
2018-03-28T17:15:44.000Z,988.035
2018-03-28T17:25:44.000Z,987.759
2018-03-28T17:35:44.000Z,987.535
2018-03-28T17:45:44.000Z,987.353
2018-03-28T17:55:44.000Z,987.195
2018-03-28T18:05:47.000Z,987.056
2018-03-28T18:15:44.000Z,986.864
2018-03-28T18:25:44.000Z,986.786
2018-03-28T18:35:44.000Z,986.643
2018-03-28T18:45:44.000Z,986.529
2018-03-28T18:55:44.000Z,986.503
2018-03-28T19:05:45.000Z,986.355
2018-03-28T19:15:44.000Z,986.336
2018-03-28T19:25:45.000Z,986.307
2018-03-28T19:35:46.000Z,986.53
2018-03-28T19:45:44.000Z,986.897
2018-03-28T19:55:45.000Z,987.27
2018-03-28T20:05:45.000Z,987.653
2018-03-28T20:15:45.000Z,987.951
2018-03-28T20:25:45.000Z,988.23
2018-03-28T20:35:45.000Z,988.524
2018-03-28T20:45:49.000Z,988.912
2018-03-28T20:55:45.000Z,989.414
2018-03-28T21:05:45.000Z,989.729
2018-03-28T21:15:45.000Z,990.022
2018-03-28T21:25:45.000Z,990.333
2018-03-28T21:35:45.000Z,990.555
2018-03-28T21:45:45.000Z,990.91
2018-03-28T21:55:45.000Z,991.142
2018-03-28T22:05:45.000Z,991.483
2018-03-28T22:15:45.000Z,991.66
2018-03-28T22:25:45.000Z,991.87
2018-03-28T22:35:45.000Z,992.206
2018-03-28T22:45:45.000Z,992.485
2018-03-28T22:55:45.000Z,992.636
2018-03-28T23:05:45.000Z,992.81
2018-03-28T23:15:45.000Z,992.96
2018-03-28T23:25:45.000Z,993.179
2018-03-28T23:35:45.000Z,993.381
2018-03-28T23:45:45.000Z,993.614
2018-03-28T23:55:45.000Z,993.72
